Airfield :
LOGIN :

Register | Disclaimer

   EN    FR    IT 

 










Legend :    VFR   Marginal VFR   IFR   Intensive IFR   Very Intensive IFR
Visi :
Ceiling :
>= 8 km
>= 3000ft
5 to 8 km
1000 to 3000 ft
1500m to 5 km
500 to 1000 ft
800 to 1500m
200 to 500 ft
< 800m
< 200 ft
Symbols :   Thunderstorms  Fog  Heavy snow  Heavy precipitations  Wind > 20 kt
SIGMETs :     Misc.  Thunderstorms  Icing  Turbulence  Mountain Waves  Volcanic Ashes







- Airport Elevation : 289 ft
- IATA code : ZAD


LDZD - Zadar

CURRENT METAR :
  • 111730Z 12003KT 9999 FEW040 00/M01 Q1018 NOSIG

EXPIRED METARs :
  • 111700Z 11003KT 9999 FEW040 00/M01 Q1018 NOSIG
  • 111630Z 13002KT 9999 FEW040 02/01 Q1018 NOSIG
  • 111600Z 00000KT 9999 FEW040 03/01 Q1018 NOSIG
  • 111530Z 19003KT 110V250 9999 FEW040 05/02 Q1018 NOSIG
  • 111500Z 23003KT 9999 FEW040 08/02 Q1017 NOSIG
  • 111430Z 24003KT 220V280 9999 FEW040 09/01 Q1017 NOSIG

TAF TAF LDZD
Valid from the 11 at 12:00 until the 12 at 12:00 UTC


111125Z 1112/1212 VRB02KT CAVOK TX11/1113Z TNM04/1205Z
TEMPO 1112/1116 32007KT
No reported NOTAMs for that airfield.



MET'MAP, your aeronautical weather chart ! - Copyright ORBIFLY December 2007 - Disclaimer

ORBIFLY MET'MAP TEAM :

Programming & Development : Alexandra Zaïnal
Concept & Development : Baudouin d'Aumeries
Co-Development & Prog : Marc-Olivier Méhu
Technical & hardware support : Manuel Goepfert

Contact : metmap@orbifly.com




SOURCES & CREDITS :

   NOAA